Time;durP1;ratioP1;P1;durP2;ratioP2;P2;SDS_P1;SDS_P2;PMS_P1;PMS_P2;Temp;Humidity;BMP_temperature;BMP_pressure;BME280_temperature;BME280_humidity;BME280_pressure;Samples;Min_cycle;Max_cycle;Signal;HPM_P1;HPM_P2
2023/09/03 00:01:57;;;;;;;5.63;2.10;;;;;;;;;;5087705;28;20194;-91
2023/09/03 00:05:03;;;;;;;7.72;2.35;;;;;;;;;;5087166;28;20221;-89
2023/09/03 00:08:09;;;;;;;8.63;2.33;;;;;;;;;;5085158;28;20198;-90
2023/09/03 00:11:14;;;;;;;5.45;2.35;;;;;;;;;;5097843;28;20183;-90
2023/09/03 00:14:20;;;;;;;5.40;2.60;;;;;;;;;;5087028;28;20182;-90
2023/09/03 00:17:25;;;;;;;3.95;2.40;;;;;;;;;;5086778;28;20202;-88
2023/09/03 00:20:30;;;;;;;6.63;2.38;;;;;;;;;;5085712;28;20252;-91
2023/09/03 00:23:36;;;;;;;7.22;2.42;;;;;;;;;;5087587;28;20221;-91
2023/09/03 00:26:42;;;;;;;9.45;2.58;;;;;;;;;;5084835;28;20200;-88
2023/09/03 00:29:47;;;;;;;5.53;2.45;;;;;;;;;;5085643;28;20343;-91
2023/09/03 00:32:52;;;;;;;6.53;2.47;;;;;;;;;;5090477;28;20202;-90
2023/09/03 00:35:57;;;;;;;7.68;2.53;;;;;;;;;;5090152;28;20198;-89
2023/09/03 00:39:04;;;;;;;5.50;2.08;;;;;;;;;;5101256;28;20197;-90
2023/09/03 00:42:10;;;;;;;5.10;2.30;;;;;;;;;;5100496;28;20186;-90
2023/09/03 00:45:15;;;;;;;4.53;2.20;;;;;;;;;;5102352;28;20225;-90
2023/09/03 00:48:22;;;;;;;5.85;2.58;;;;;;;;;;5090735;28;20300;-90
2023/09/03 00:51:27;;;;;;;6.47;2.40;;;;;;;;;;5075193;28;20234;-91
2023/09/03 00:54:35;;;;;;;6.45;2.22;;;;;;;;;;5101556;28;20194;-90
2023/09/03 00:57:40;;;;;;;5.80;2.00;;;;;;;;;;5089775;28;20206;-90
2023/09/03 01:00:46;;;;;;;7.45;2.33;;;;;;;;;;5102109;28;20186;-91
2023/09/03 01:03:51;;;;;;;4.28;2.08;;;;;;;;;;5101095;28;20229;-92
2023/09/03 01:06:57;;;;;;;12.07;2.70;;;;;;;;;;5085787;28;20491;-90
2023/09/03 01:10:04;;;;;;;3.13;2.20;;;;;;;;;;5087894;28;20313;-90
2023/09/03 01:13:13;;;;;;;6.63;2.40;;;;;;;;;;5100138;28;20195;-89
2023/09/03 01:16:20;;;;;;;4.15;2.40;;;;;;;;;;5089431;28;20265;-89
2023/09/03 01:19:43;;;;;;;5.75;2.30;;;;;;;;;;5078456;28;20203;-91
2023/09/03 01:23:05;;;;;;;8.38;2.10;;;;;;;;;;5310482;22;20248;-89
2023/09/03 01:26:20;;;;;;;8.07;2.45;;;;;;;;;;5132461;28;20177;-90
2023/09/03 01:29:29;;;;;;;4.53;2.05;;;;;;;;;;5131763;28;20270;-91
2023/09/03 01:32:36;;;;;;;10.98;2.60;;;;;;;;;;5133268;28;20666;-91
2023/09/03 01:35:43;;;;;;;4.80;2.75;;;;;;;;;;5133776;28;20274;-93
2023/09/03 01:38:48;;;;;;;6.05;2.78;;;;;;;;;;5133871;28;20248;-91
2023/09/03 01:41:55;;;;;;;12.07;3.28;;;;;;;;;;5132990;28;20271;-90
2023/09/03 01:45:01;;;;;;;7.13;2.63;;;;;;;;;;5133512;28;20208;-93
2023/09/03 01:48:10;;;;;;;8.02;3.13;;;;;;;;;;5129768;28;20197;-91
2023/09/03 01:51:17;;;;;;;5.32;2.78;;;;;;;;;;5109223;28;20186;-92
2023/09/03 01:54:24;;;;;;;7.38;2.30;;;;;;;;;;5126022;28;20216;-90
2023/09/03 01:57:31;;;;;;;10.60;2.63;;;;;;;;;;5130673;28;20196;-90
2023/09/03 02:00:39;;;;;;;5.85;2.80;;;;;;;;;;5112419;28;20603;-91
2023/09/03 02:03:45;;;;;;;9.15;3.03;;;;;;;;;;5110436;28;20212;-92
2023/09/03 02:06:50;;;;;;;8.57;2.70;;;;;;;;;;5109022;28;20574;-90
2023/09/03 02:09:56;;;;;;;5.75;3.00;;;;;;;;;;5109256;28;20182;-91
2023/09/03 02:13:01;;;;;;;6.25;3.05;;;;;;;;;;5109985;28;20185;-91
2023/09/03 02:16:11;;;;;;;7.35;3.13;;;;;;;;;;5109146;28;20847;-90
2023/09/03 02:19:17;;;;;;;5.07;3.05;;;;;;;;;;5109135;28;20198;-90
2023/09/03 02:22:23;;;;;;;5.65;3.50;;;;;;;;;;5127919;28;20220;-92
2023/09/03 02:25:28;;;;;;;62.03;5.70;;;;;;;;;;5128011;28;20246;-90
2023/09/03 02:28:34;;;;;;;23.05;3.97;;;;;;;;;;5116705;28;20173;-90
2023/09/03 02:31:41;;;;;;;8.00;3.75;;;;;;;;;;5108175;28;20202;-92
2023/09/03 02:34:47;;;;;;;7.20;3.38;;;;;;;;;;5151665;22;20727;-91
2023/09/03 02:37:54;;;;;;;10.68;3.63;;;;;;;;;;5087977;28;20364;-88
2023/09/03 02:40:59;;;;;;;11.48;3.35;;;;;;;;;;5087372;28;20193;-90
2023/09/03 02:44:07;;;;;;;13.35;3.97;;;;;;;;;;5077815;28;20194;-91
2023/09/03 02:47:13;;;;;;;15.77;2.90;;;;;;;;;;5068508;28;20174;-91
2023/09/03 02:50:18;;;;;;;7.68;3.30;;;;;;;;;;5068369;28;20291;-90
2023/09/03 02:53:23;;;;;;;6.75;3.35;;;;;;;;;;5066982;28;20226;-90
2023/09/03 02:56:29;;;;;;;9.45;3.60;;;;;;;;;;5066674;28;20269;-91
2023/09/03 02:59:34;;;;;;;5.38;3.25;;;;;;;;;;5081264;28;20210;-89
2023/09/03 03:02:42;;;;;;;6.00;3.05;;;;;;;;;;5087338;28;20263;-93
2023/09/03 03:05:47;;;;;;;10.38;3.38;;;;;;;;;;5086838;28;20319;-92
2023/09/03 03:08:54;;;;;;;7.05;3.10;;;;;;;;;;5086589;28;20735;-89
2023/09/03 03:11:59;;;;;;;7.30;3.03;;;;;;;;;;5073929;28;20261;-90
2023/09/03 03:15:05;;;;;;;5.45;3.25;;;;;;;;;;5085504;28;20942;-89
2023/09/03 03:18:13;;;;;;;6.70;3.83;;;;;;;;;;5087982;28;20265;-90
2023/09/03 03:21:21;;;;;;;17.75;4.00;;;;;;;;;;5067928;28;20681;-90
2023/09/03 03:24:29;;;;;;;7.88;4.03;;;;;;;;;;5068351;28;20206;-92
2023/09/03 03:27:37;;;;;;;11.52;3.45;;;;;;;;;;5070559;28;20665;-90
2023/09/03 03:30:43;;;;;;;5.05;3.67;;;;;;;;;;5067611;28;20186;-91
2023/09/03 03:33:51;;;;;;;7.88;3.70;;;;;;;;;;5084554;28;20193;-91
2023/09/03 03:36:59;;;;;;;5.72;2.72;;;;;;;;;;5087850;28;20198;-92
2023/09/03 03:40:06;;;;;;;5.43;2.60;;;;;;;;;;5087760;28;20210;-92
2023/09/03 03:43:12;;;;;;;9.73;2.60;;;;;;;;;;5067482;28;20187;-91
2023/09/03 03:46:18;;;;;;;7.30;2.70;;;;;;;;;;5086262;28;20213;-90
2023/09/03 03:49:27;;;;;;;5.13;2.70;;;;;;;;;;5086650;28;20205;-90
2023/09/03 03:52:32;;;;;;;6.10;2.70;;;;;;;;;;5085972;28;20190;-89
2023/09/03 03:55:38;;;;;;;5.65;2.70;;;;;;;;;;5068407;28;20191;-89
2023/09/03 03:58:44;;;;;;;3.65;2.40;;;;;;;;;;5086575;28;20265;-92
2023/09/03 04:01:50;;;;;;;8.32;2.35;;;;;;;;;;5085283;28;20217;-90
2023/09/03 04:04:56;;;;;;;4.43;2.53;;;;;;;;;;5084399;28;20221;-88
2023/09/03 04:08:02;;;;;;;4.60;2.40;;;;;;;;;;5084438;28;20206;-88
2023/09/03 04:11:08;;;;;;;5.68;2.72;;;;;;;;;;5084851;28;20209;-89
2023/09/03 04:14:13;;;;;;;5.50;2.40;;;;;;;;;;5085618;28;20182;-91
2023/09/03 04:17:19;;;;;;;3.63;2.42;;;;;;;;;;5083961;28;20329;-92
2023/09/03 04:20:25;;;;;;;3.35;2.33;;;;;;;;;;5082783;28;20212;-91
2023/09/03 04:23:30;;;;;;;3.22;2.20;;;;;;;;;;5082763;28;20190;-90
2023/09/03 04:26:38;;;;;;;5.28;2.53;;;;;;;;;;5086651;28;20206;-89
2023/09/03 04:29:43;;;;;;;4.97;2.70;;;;;;;;;;5086691;28;20206;-92
2023/09/03 04:32:49;;;;;;;4.35;2.60;;;;;;;;;;5088603;28;20187;-89
2023/09/03 04:35:58;;;;;;;3.58;2.25;;;;;;;;;;5087788;28;20326;-89
2023/09/03 04:39:05;;;;;;;3.60;2.20;;;;;;;;;;5088688;28;20178;-90
2023/09/03 04:42:10;;;;;;;3.42;2.38;;;;;;;;;;5087752;28;20226;-92
2023/09/03 04:45:15;;;;;;;3.42;2.33;;;;;;;;;;5079169;28;20219;-91
2023/09/03 04:48:22;;;;;;;5.47;2.30;;;;;;;;;;5067467;28;20191;-89
2023/09/03 04:51:28;;;;;;;3.55;2.20;;;;;;;;;;5089304;28;20183;-90
2023/09/03 04:54:34;;;;;;;3.90;2.17;;;;;;;;;;5086078;28;20209;-91
2023/09/03 04:57:40;;;;;;;5.70;2.47;;;;;;;;;;5085660;28;20270;-91
2023/09/03 05:00:46;;;;;;;4.32;2.10;;;;;;;;;;5087425;28;20195;-90
2023/09/03 05:03:51;;;;;;;7.45;2.08;;;;;;;;;;5087101;28;20183;-89
2023/09/03 05:07:00;;;;;;;6.15;2.15;;;;;;;;;;5085850;28;20218;-93
2023/09/03 05:10:05;;;;;;;3.10;2.13;;;;;;;;;;5085428;28;20170;-91
2023/09/03 05:13:10;;;;;;;5.70;2.70;;;;;;;;;;5077900;28;20199;-92
2023/09/03 05:16:15;;;;;;;4.18;2.20;;;;;;;;;;5082461;28;20554;-92
2023/09/03 05:19:22;;;;;;;4.18;2.15;;;;;;;;;;5087403;28;20191;-90
2023/09/03 05:22:29;;;;;;;6.70;2.50;;;;;;;;;;5086352;28;20194;-92
2023/09/03 05:25:35;;;;;;;7.68;2.55;;;;;;;;;;5086398;28;20210;-89
2023/09/03 05:28:39;;;;;;;3.65;2.42;;;;;;;;;;5088555;28;20173;-92
2023/09/03 05:31:52;;;;;;;5.80;2.70;;;;;;;;;;5089105;28;20576;-93
2023/09/03 05:34:57;;;;;;;5.82;2.88;;;;;;;;;;5089945;28;20579;-89
2023/09/03 05:38:04;;;;;;;2.33;2.13;;;;;;;;;;5088819;28;20201;-90
2023/09/03 05:41:10;;;;;;;4.00;2.38;;;;;;;;;;5089540;28;20190;-91
2023/09/03 05:44:15;;;;;;;4.82;2.45;;;;;;;;;;5089680;28;20186;-89
2023/09/03 05:47:22;;;;;;;4.85;2.50;;;;;;;;;;5090664;28;20186;-91
2023/09/03 05:50:31;;;;;;;3.35;2.40;;;;;;;;;;5088753;28;20274;-91
2023/09/03 05:53:39;;;;;;;5.75;2.40;;;;;;;;;;5088595;28;20657;-91
2023/09/03 05:56:45;;;;;;;3.30;2.40;;;;;;;;;;5086987;28;20253;-90
2023/09/03 05:59:51;;;;;;;6.63;2.17;;;;;;;;;;5068495;28;20199;-91
2023/09/03 06:02:58;;;;;;;6.30;2.25;;;;;;;;;;5092723;28;20227;-90
2023/09/03 06:06:04;;;;;;;5.78;2.63;;;;;;;;;;5088450;28;20584;-91
2023/09/03 06:09:12;;;;;;;7.90;2.17;;;;;;;;;;5071737;28;20171;-91
2023/09/03 06:26:57;;;;;;;3.03;1.70;;;;;;;;;;5109861;28;20236;-89
2023/09/03 06:30:03;;;;;;;3.03;1.73;;;;;;;;;;5091380;28;20198;-89
2023/09/03 06:33:09;;;;;;;3.05;2.00;;;;;;;;;;5099006;28;20189;-90
2023/09/03 06:36:15;;;;;;;2.97;1.73;;;;;;;;;;5093604;28;20181;-91
2023/09/03 06:39:21;;;;;;;3.88;1.88;;;;;;;;;;5100463;28;20190;-91
2023/09/03 06:42:29;;;;;;;2.38;1.63;;;;;;;;;;5097092;28;20243;-92
2023/09/03 06:45:35;;;;;;;2.08;1.60;;;;;;;;;;5092875;28;20226;-91
2023/09/03 06:48:41;;;;;;;4.30;1.73;;;;;;;;;;5075283;28;20195;-91
2023/09/03 06:51:51;;;;;;;2.78;1.95;;;;;;;;;;5097414;28;20281;-93
2023/09/03 06:54:55;;;;;;;2.70;1.65;;;;;;;;;;5098165;28;20190;-90
2023/09/03 06:58:02;;;;;;;2.63;1.77;;;;;;;;;;5095980;28;20180;-92
2023/09/03 07:01:11;;;;;;;3.95;1.70;;;;;;;;;;5089823;28;20195;-92
2023/09/03 07:04:16;;;;;;;2.92;1.80;;;;;;;;;;5093337;28;20217;-89
2023/09/03 07:07:21;;;;;;;2.13;1.70;;;;;;;;;;5098667;28;20197;-89
2023/09/03 07:10:26;;;;;;;2.60;1.85;;;;;;;;;;5076313;28;20541;-91
2023/09/03 07:13:33;;;;;;;3.40;1.83;;;;;;;;;;5077309;28;20166;-90
2023/09/03 07:16:38;;;;;;;3.42;1.52;;;;;;;;;;5077252;28;20185;-90
2023/09/03 07:19:44;;;;;;;3.20;1.60;;;;;;;;;;5091028;28;20197;-90
2023/09/03 07:22:49;;;;;;;2.08;1.50;;;;;;;;;;5084316;28;20178;-93
2023/09/03 07:25:54;;;;;;;2.45;1.50;;;;;;;;;;5631483;22;20264;-90
2023/09/03 07:29:04;;;;;;;3.63;1.63;;;;;;;;;;5118417;28;20632;-90
2023/09/03 07:32:10;;;;;;;2.25;1.35;;;;;;;;;;5117866;28;20287;-90
2023/09/03 07:35:15;;;;;;;2.53;1.73;;;;;;;;;;5113696;28;20220;-90
2023/09/03 07:38:21;;;;;;;2.35;1.48;;;;;;;;;;5096803;28;20190;-93
2023/09/03 07:41:27;;;;;;;2.55;1.60;;;;;;;;;;5113766;27;20263;-90
2023/09/03 07:44:34;;;;;;;2.28;1.55;;;;;;;;;;5113167;28;20209;-90
2023/09/03 07:47:39;;;;;;;2.67;1.40;;;;;;;;;;5117498;28;20208;-87
2023/09/03 07:50:46;;;;;;;2.50;1.70;;;;;;;;;;5119441;28;20221;-89
2023/09/03 07:53:52;;;;;;;4.40;2.35;;;;;;;;;;5119798;28;20221;-89
2023/09/03 07:56:58;;;;;;;3.92;1.77;;;;;;;;;;5109820;27;20263;-90
2023/09/03 08:00:10;;;;;;;3.58;1.60;;;;;;;;;;5109541;28;20208;-90
2023/09/03 08:03:18;;;;;;;2.67;1.98;;;;;;;;;;5128027;28;20342;-89
2023/09/03 08:06:23;;;;;;;2.30;1.50;;;;;;;;;;5105104;28;20228;-89
2023/09/03 08:09:29;;;;;;;3.33;1.95;;;;;;;;;;5098721;28;20217;-90
2023/09/03 08:12:35;;;;;;;1.85;1.50;;;;;;;;;;5108235;28;20216;-91
2023/09/03 08:15:42;;;;;;;3.13;2.00;;;;;;;;;;5120598;28;20215;-93
2023/09/03 08:18:49;;;;;;;2.65;1.70;;;;;;;;;;5121472;28;20197;-90
2023/09/03 08:21:54;;;;;;;1.65;1.40;;;;;;;;;;5110353;28;20209;-91
2023/09/03 08:25:04;;;;;;;3.83;1.80;;;;;;;;;;5111429;28;20235;-92
2023/09/03 08:28:10;;;;;;;2.85;1.65;;;;;;;;;;5106581;27;20197;-90
2023/09/03 08:31:17;;;;;;;2.38;1.60;;;;;;;;;;5132468;28;20204;-91
2023/09/03 08:34:22;;;;;;;3.25;1.77;;;;;;;;;;5110126;28;20730;-91
2023/09/03 08:37:31;;;;;;;2.65;1.52;;;;;;;;;;5101155;28;20265;-90
2023/09/03 08:40:37;;;;;;;2.97;1.83;;;;;;;;;;5110462;28;20213;-89
2023/09/03 08:43:42;;;;;;;2.70;1.83;;;;;;;;;;5113795;28;20193;-91
2023/09/03 08:46:53;;;;;;;3.17;1.83;;;;;;;;;;5110095;28;20220;-91
2023/09/03 08:53:20;;;;;;;4.25;1.88;;;;;;;;;;5110957;28;20201;-91
2023/09/03 08:56:26;;;;;;;2.30;1.70;;;;;;;;;;5116149;28;20235;-91
2023/09/03 08:59:31;;;;;;;2.58;1.88;;;;;;;;;;5122999;28;20223;-92
2023/09/03 09:02:39;;;;;;;3.05;1.85;;;;;;;;;;5123054;28;20235;-93
2023/09/03 09:05:45;;;;;;;3.03;2.03;;;;;;;;;;5108088;28;20223;-89
2023/09/03 09:08:53;;;;;;;3.25;2.00;;;;;;;;;;5120100;28;20460;-89
2023/09/03 09:15:05;;;;;;;3.95;1.92;;;;;;;;;;5108879;27;20725;-92
2023/09/03 09:18:10;;;;;;;2.55;1.83;;;;;;;;;;5108116;28;20208;-91
2023/09/03 09:21:24;;;;;;;3.05;1.90;;;;;;;;;;5079288;28;20310;-90
2023/09/03 09:24:30;;;;;;;5.30;1.67;;;;;;;;;;5085206;28;20245;-91
2023/09/03 09:27:37;;;;;;;4.55;2.17;;;;;;;;;;5089849;28;20217;-91
2023/09/03 09:30:58;;;;;;;8.15;1.90;;;;;;;;;;5086269;28;20190;-92
2023/09/03 09:34:12;;;;;;;2.90;1.90;;;;;;;;;;5090066;28;20281;-92
2023/09/03 09:37:18;;;;;;;2.63;1.90;;;;;;;;;;5075744;28;20198;-92
2023/09/03 09:40:28;;;;;;;2.05;1.80;;;;;;;;;;5087552;28;20975;-90
2023/09/03 09:43:47;;;;;;;2.30;1.70;;;;;;;;;;5098906;28;20209;-91
2023/09/03 09:46:54;;;;;;;3.28;1.60;;;;;;;;;;5070642;28;20191;-93
2023/09/03 09:50:00;;;;;;;2.20;1.70;;;;;;;;;;5101281;28;20198;-90
2023/09/03 09:56:29;;;;;;;3.97;2.10;;;;;;;;;;5085066;28;20174;-88
2023/09/03 09:59:35;;;;;;;4.30;1.63;;;;;;;;;;5085812;28;20194;-89
2023/09/03 10:02:42;;;;;;;2.65;1.50;;;;;;;;;;5096083;28;20202;-89
2023/09/03 10:05:50;;;;;;;3.05;1.45;;;;;;;;;;5094441;28;20257;-90
2023/09/03 10:08:56;;;;;;;1.75;1.23;;;;;;;;;;5077161;28;20182;-89
2023/09/03 10:12:01;;;;;;;3.03;1.50;;;;;;;;;;5095139;28;20205;-89
2023/09/03 10:15:07;;;;;;;2.42;1.40;;;;;;;;;;5074077;28;20205;-91
2023/09/03 10:18:16;;;;;;;1.98;1.20;;;;;;;;;;5084643;28;20193;-90
2023/09/03 10:21:21;;;;;;;1.40;1.30;;;;;;;;;;5077631;28;20187;-90
2023/09/03 10:24:27;;;;;;;1.50;1.23;;;;;;;;;;5091102;28;20187;-91
2023/09/03 10:27:34;;;;;;;1.48;1.10;;;;;;;;;;5072918;28;20231;-90
2023/09/03 10:30:41;;;;;;;1.70;1.30;;;;;;;;;;5052233;28;20283;-90
2023/09/03 10:33:47;;;;;;;1.67;1.30;;;;;;;;;;5063761;28;20207;-92
2023/09/03 10:37:06;;;;;;;2.65;1.40;;;;;;;;;;5074585;28;20214;-91
2023/09/03 10:40:21;;;;;;;1.67;1.48;;;;;;;;;;5071551;28;20186;-89
2023/09/03 10:43:27;;;;;;;2.25;1.35;;;;;;;;;;5072120;28;20182;-88
2023/09/03 10:46:32;;;;;;;1.63;1.33;;;;;;;;;;5052600;28;20214;-90
2023/09/03 10:49:48;;;;;;;1.88;1.20;;;;;;;;;;5071189;28;20182;-90
2023/09/03 10:52:53;;;;;;;2.83;1.70;;;;;;;;;;5066967;28;20205;-91
2023/09/03 10:56:07;;;;;;;1.48;1.25;;;;;;;;;;5068685;28;20198;-89
2023/09/03 10:59:12;;;;;;;1.63;1.33;;;;;;;;;;5065658;28;20244;-92
2023/09/03 11:02:35;;;;;;;2.15;1.50;;;;;;;;;;5055684;28;20183;-91
2023/09/03 11:05:42;;;;;;;1.38;1.23;;;;;;;;;;5053476;28;20314;-92
2023/09/03 11:08:47;;;;;;;1.08;0.90;;;;;;;;;;5063060;28;20259;-90
2023/09/03 11:12:01;;;;;;;0.98;0.82;;;;;;;;;;5064522;28;20175;-91
2023/09/03 11:15:07;;;;;;;10.77;3.97;;;;;;;;;;5073376;28;20242;-91
2023/09/03 11:18:13;;;;;;;7.75;2.47;;;;;;;;;;5072985;28;20178;-92
2023/09/03 11:21:21;;;;;;;2.53;1.27;;;;;;;;;;5073914;28;20175;-95
2023/09/03 11:24:26;;;;;;;1.80;1.00;;;;;;;;;;5083137;28;20653;-90
2023/09/03 11:27:32;;;;;;;1.30;1.10;;;;;;;;;;5084605;28;20170;-93
2023/09/03 11:30:37;;;;;;;1.10;0.88;;;;;;;;;;5071627;28;20199;-92
2023/09/03 11:33:43;;;;;;;0.93;0.90;;;;;;;;;;5072136;28;20288;-92
2023/09/03 11:36:49;;;;;;;2.38;0.82;;;;;;;;;;5071860;28;20197;-94
2023/09/03 11:39:55;;;;;;;2.42;1.30;;;;;;;;;;5071326;28;20187;-92
2023/09/03 11:43:01;;;;;;;0.77;0.77;;;;;;;;;;5072966;28;21005;-93
2023/09/03 11:46:13;;;;;;;2.15;1.05;;;;;;;;;;5071601;28;20190;-90
2023/09/03 11:49:22;;;;;;;1.15;1.05;;;;;;;;;;5071029;28;20167;-92
2023/09/03 11:52:29;;;;;;;1.02;0.82;;;;;;;;;;5072744;28;20251;-92
2023/09/03 11:55:37;;;;;;;0.77;0.63;;;;;;;;;;5071536;28;20287;-92
2023/09/03 11:58:42;;;;;;;0.77;0.75;;;;;;;;;;5071679;28;20218;-92
2023/09/03 12:01:48;;;;;;;1.30;0.80;;;;;;;;;;5072872;28;20179;-94
2023/09/03 12:04:53;;;;;;;1.25;1.00;;;;;;;;;;5073546;28;20190;-92
2023/09/03 12:08:04;;;;;;;1.05;0.75;;;;;;;;;;5072579;28;20186;-93
2023/09/03 12:11:13;;;;;;;1.27;0.90;;;;;;;;;;5071009;28;20183;-92
2023/09/03 12:14:29;;;;;;;1.13;0.90;;;;;;;;;;5105683;23;20393;-92
2023/09/03 12:17:35;;;;;;;1.25;0.98;;;;;;;;;;5089313;28;20182;-93
2023/09/03 12:20:42;;;;;;;2.03;1.00;;;;;;;;;;5090907;28;20189;-91
2023/09/03 12:23:52;;;;;;;1.10;0.90;;;;;;;;;;5089881;28;20194;-92
2023/09/03 12:27:03;;;;;;;1.80;1.10;;;;;;;;;;5088954;28;20201;-91
2023/09/03 12:30:09;;;;;;;1.10;0.90;;;;;;;;;;5091394;28;20186;-93
2023/09/03 12:36:34;;;;;;;0.85;0.80;;;;;;;;;;5090333;28;20233;-92
2023/09/03 12:39:43;;;;;;;1.05;0.90;;;;;;;;;;5091173;28;20186;-91
2023/09/03 12:42:53;;;;;;;2.13;1.50;;;;;;;;;;5092056;28;20244;-92
2023/09/03 12:45:59;;;;;;;1.00;0.90;;;;;;;;;;5090726;28;20194;-92
2023/09/03 12:49:06;;;;;;;1.15;0.80;;;;;;;;;;5089658;28;20261;-92
2023/09/03 12:52:11;;;;;;;0.85;0.75;;;;;;;;;;5092441;28;20183;-93
2023/09/03 12:55:18;;;;;;;1.42;1.00;;;;;;;;;;5090754;28;20257;-92
2023/09/03 12:58:25;;;;;;;1.27;0.90;;;;;;;;;;5091954;28;20193;-92
2023/09/03 13:01:31;;;;;;;1.20;0.80;;;;;;;;;;5091282;28;20173;-91
2023/09/03 13:04:37;;;;;;;1.85;1.00;;;;;;;;;;5091215;28;20191;-93
2023/09/03 13:07:42;;;;;;;1.10;1.00;;;;;;;;;;5090720;28;20216;-93
2023/09/03 13:10:56;;;;;;;0.88;0.82;;;;;;;;;;5090743;28;20281;-90
2023/09/03 13:14:02;;;;;;;1.42;0.85;;;;;;;;;;5091927;28;20230;-91
2023/09/03 13:17:08;;;;;;;1.75;1.13;;;;;;;;;;5091532;28;20214;-92
2023/09/03 13:20:19;;;;;;;1.42;0.93;;;;;;;;;;5091271;28;20190;-92
2023/09/03 13:23:27;;;;;;;0.98;0.80;;;;;;;;;;5090322;28;20249;-91
2023/09/03 13:26:35;;;;;;;1.17;0.95;;;;;;;;;;5090261;28;20181;-92
2023/09/03 13:29:43;;;;;;;1.05;0.85;;;;;;;;;;5089734;28;20240;-92
2023/09/03 13:33:13;;;;;;;1.02;0.80;;;;;;;;;;5092202;28;20205;-90
2023/09/03 13:36:21;;;;;;;0.95;0.85;;;;;;;;;;5089455;28;20205;-90
2023/09/03 13:39:26;;;;;;;1.60;0.90;;;;;;;;;;5089531;28;20242;-91
2023/09/03 13:42:33;;;;;;;0.80;0.80;;;;;;;;;;5090334;28;20209;-92
2023/09/03 13:45:38;;;;;;;1.23;1.00;;;;;;;;;;5090217;28;20182;-91
2023/09/03 13:48:51;;;;;;;1.70;1.13;;;;;;;;;;5089595;28;20202;-93
2023/09/03 13:51:57;;;;;;;0.82;0.80;;;;;;;;;;5089819;28;20189;-89
2023/09/03 13:55:02;;;;;;;2.05;0.90;;;;;;;;;;5089456;28;20288;-92
2023/09/03 13:58:08;;;;;;;1.10;0.98;;;;;;;;;;5090772;28;20178;-92
2023/09/03 14:01:14;;;;;;;1.80;1.00;;;;;;;;;;5092884;28;20194;-93
2023/09/03 14:04:19;;;;;;;1.58;1.20;;;;;;;;;;5095371;28;20241;-91
2023/09/03 14:07:24;;;;;;;1.05;0.70;;;;;;;;;;5092697;28;20700;-92
2023/09/03 14:10:29;;;;;;;1.30;1.00;;;;;;;;;;5092635;28;20228;-91
2023/09/03 14:13:36;;;;;;;1.77;1.40;;;;;;;;;;5089904;28;20210;-92
2023/09/03 14:16:40;;;;;;;2.58;1.40;;;;;;;;;;5088360;28;20183;-91
2023/09/03 14:19:46;;;;;;;1.65;1.27;;;;;;;;;;5090674;28;20198;-93
2023/09/03 14:22:53;;;;;;;1.77;0.90;;;;;;;;;;5086621;28;20220;-92
2023/09/03 14:25:58;;;;;;;1.90;0.80;;;;;;;;;;5086321;28;20186;-90
2023/09/03 14:29:09;;;;;;;1.50;0.95;;;;;;;;;;5085545;28;20264;-91
2023/09/03 14:32:15;;;;;;;3.58;0.93;;;;;;;;;;5087677;28;20178;-92
2023/09/03 14:35:20;;;;;;;1.08;0.98;;;;;;;;;;5086958;28;20214;-92
2023/09/03 14:38:26;;;;;;;1.08;0.98;;;;;;;;;;5086113;28;20186;-91
2023/09/03 14:41:32;;;;;;;1.42;1.15;;;;;;;;;;5088108;28;20173;-93
2023/09/03 14:44:55;;;;;;;1.63;1.30;;;;;;;;;;5086152;28;20236;-94
2023/09/03 14:48:03;;;;;;;1.52;1.02;;;;;;;;;;5088714;28;20194;-92
2023/09/03 14:51:09;;;;;;;2.85;1.10;;;;;;;;;;5087429;28;20190;-93
2023/09/03 14:54:14;;;;;;;1.38;0.75;;;;;;;;;;5088422;28;20190;-92
2023/09/03 14:57:20;;;;;;;1.50;1.10;;;;;;;;;;5087944;28;20563;-92
2023/09/03 15:00:25;;;;;;;1.90;1.30;;;;;;;;;;5076499;28;20194;-91
2023/09/03 15:03:34;;;;;;;1.30;1.20;;;;;;;;;;5087245;28;20199;-92
2023/09/03 15:06:39;;;;;;;1.30;1.20;;;;;;;;;;5088727;28;20183;-91
2023/09/03 15:09:45;;;;;;;2.50;1.20;;;;;;;;;;5089761;28;20189;-92
2023/09/03 15:12:50;;;;;;;1.05;0.85;;;;;;;;;;5087448;28;20166;-91
2023/09/03 15:15:55;;;;;;;1.77;1.10;;;;;;;;;;5084378;28;20218;-91
2023/09/03 15:19:02;;;;;;;1.42;0.80;;;;;;;;;;5086223;28;20179;-92
2023/09/03 15:22:07;;;;;;;1.63;1.10;;;;;;;;;;5086567;28;20187;-90
2023/09/03 15:25:12;;;;;;;1.90;1.33;;;;;;;;;;5085404;28;20186;-91
2023/09/03 15:28:16;;;;;;;1.88;1.30;;;;;;;;;;5085531;28;20191;-91
2023/09/03 15:31:25;;;;;;;1.33;0.90;;;;;;;;;;5085908;28;20185;-91
2023/09/03 15:34:36;;;;;;;2.20;1.02;;;;;;;;;;5086351;28;20226;-93
2023/09/03 15:37:42;;;;;;;2.95;2.05;;;;;;;;;;5086860;28;20240;-91
2023/09/03 15:40:47;;;;;;;3.58;2.40;;;;;;;;;;5075600;28;20317;-92
2023/09/03 15:44:01;;;;;;;2.05;1.50;;;;;;;;;;5088777;28;20657;-94
2023/09/03 15:47:07;;;;;;;1.30;1.00;;;;;;;;;;5089599;28;20307;-92
2023/09/03 15:50:14;;;;;;;2.88;1.20;;;;;;;;;;5086187;28;20203;-91
2023/09/03 15:53:19;;;;;;;2.97;1.40;;;;;;;;;;5086557;28;20226;-93
2023/09/03 15:56:24;;;;;;;1.75;1.33;;;;;;;;;;5055572;28;20222;-92
2023/09/03 15:59:29;;;;;;;2.33;1.25;;;;;;;;;;5079016;28;20251;-92
2023/09/03 16:02:35;;;;;;;1.50;1.10;;;;;;;;;;5077593;28;20203;-92
2023/09/03 16:05:47;;;;;;;1.55;1.20;;;;;;;;;;5082999;28;20273;-91
2023/09/03 16:08:52;;;;;;;1.40;0.90;;;;;;;;;;5087154;28;20204;-92
2023/09/03 16:11:57;;;;;;;1.45;1.20;;;;;;;;;;5088070;28;20190;-92
2023/09/03 16:15:04;;;;;;;1.92;1.30;;;;;;;;;;5086437;28;20830;-93
2023/09/03 16:18:13;;;;;;;1.63;1.23;;;;;;;;;;5084815;28;20175;-91
2023/09/03 16:21:20;;;;;;;5.13;2.80;;;;;;;;;;5083748;28;20178;-90
2023/09/03 16:24:26;;;;;;;3.33;1.38;;;;;;;;;;5084563;28;20217;-92
2023/09/03 16:27:31;;;;;;;1.75;1.20;;;;;;;;;;5065130;28;20187;-95
2023/09/03 16:30:40;;;;;;;2.65;1.30;;;;;;;;;;5064361;28;20190;-93
2023/09/03 16:33:45;;;;;;;2.22;1.00;;;;;;;;;;5065144;28;20658;-91
2023/09/03 16:36:52;;;;;;;1.88;1.15;;;;;;;;;;5079481;28;20245;-90
2023/09/03 16:39:58;;;;;;;2.17;1.38;;;;;;;;;;5086400;28;20240;-89
2023/09/03 16:43:03;;;;;;;1.92;1.33;;;;;;;;;;5085941;28;20256;-96
2023/09/03 16:46:09;;;;;;;1.50;1.10;;;;;;;;;;5087139;28;20225;-92
2023/09/03 16:49:15;;;;;;;2.10;1.45;;;;;;;;;;5085532;28;20187;-92
2023/09/03 16:52:22;;;;;;;2.63;1.50;;;;;;;;;;5090341;28;20250;-92
2023/09/03 16:55:28;;;;;;;1.17;1.08;;;;;;;;;;5093074;28;20222;-93
2023/09/03 16:58:34;;;;;;;2.15;1.50;;;;;;;;;;5093541;28;20186;-93
2023/09/03 17:01:41;;;;;;;2.45;1.33;;;;;;;;;;5076891;28;20233;-92
2023/09/03 17:04:47;;;;;;;2.03;1.27;;;;;;;;;;5086862;28;20202;-93
2023/09/03 17:07:54;;;;;;;2.55;1.60;;;;;;;;;;5087679;28;20257;-91
2023/09/03 17:11:02;;;;;;;2.75;1.63;;;;;;;;;;5088826;28;20188;-92
2023/09/03 17:14:07;;;;;;;4.32;2.42;;;;;;;;;;5086521;28;20198;-91
2023/09/03 17:17:14;;;;;;;4.30;2.50;;;;;;;;;;5105710;28;20209;-92
2023/09/03 17:20:21;;;;;;;3.63;2.10;;;;;;;;;;5105650;28;20189;-90
2023/09/03 17:23:27;;;;;;;5.18;2.50;;;;;;;;;;5103685;28;20170;-90
2023/09/03 17:26:33;;;;;;;2.83;1.83;;;;;;;;;;5106414;28;21019;-93
2023/09/03 17:29:38;;;;;;;3.25;1.80;;;;;;;;;;5105975;28;20227;-93
2023/09/03 17:32:45;;;;;;;7.38;2.25;;;;;;;;;;5105665;28;20388;-93
2023/09/03 17:35:50;;;;;;;11.88;2.20;;;;;;;;;;5107739;28;20226;-91
2023/09/03 17:38:57;;;;;;;3.08;1.90;;;;;;;;;;5108883;28;20182;-92
2023/09/03 17:42:02;;;;;;;2.72;1.50;;;;;;;;;;5093490;28;20181;-93
2023/09/03 17:45:08;;;;;;;4.43;1.80;;;;;;;;;;5088552;28;20224;-92
2023/09/03 17:48:13;;;;;;;2.42;1.50;;;;;;;;;;5089347;28;20561;-93
2023/09/03 17:51:19;;;;;;;2.75;1.50;;;;;;;;;;5077692;28;20192;-93
2023/09/03 17:54:28;;;;;;;13.80;1.77;;;;;;;;;;5090288;28;20237;-93
2023/09/03 17:57:36;;;;;;;4.88;1.52;;;;;;;;;;5090916;28;20186;-91
2023/09/03 18:00:44;;;;;;;4.78;1.60;;;;;;;;;;5088869;28;20198;-91
2023/09/03 18:03:50;;;;;;;3.22;1.40;;;;;;;;;;5088206;28;20186;-92
2023/09/03 18:06:56;;;;;;;3.10;1.63;;;;;;;;;;5090448;28;20189;-90
2023/09/03 18:10:03;;;;;;;2.03;1.60;;;;;;;;;;5095615;28;20186;-94
2023/09/03 18:13:09;;;;;;;3.53;1.50;;;;;;;;;;5095020;28;20205;-90
2023/09/03 18:16:24;;;;;;;3.47;1.60;;;;;;;;;;5094320;28;20257;-92
2023/09/03 18:19:31;;;;;;;3.95;2.10;;;;;;;;;;5104040;28;20894;-90
2023/09/03 18:25:33;;;;;;;2.25;1.60;;;;;;;;;;5127498;23;20250;-91
2023/09/03 18:28:38;;;;;;;5.88;1.80;;;;;;;;;;4953469;28;20779;-90
2023/09/03 18:31:44;;;;;;;4.95;2.78;;;;;;;;;;4971184;28;20178;-94
2023/09/03 18:34:49;;;;;;;7.93;3.85;;;;;;;;;;4971614;28;20190;-93
2023/09/03 18:37:57;;;;;;;4.95;2.75;;;;;;;;;;4972458;28;20270;-90
2023/09/03 18:41:03;;;;;;;7.35;2.25;;;;;;;;;;4971682;28;20214;-92
2023/09/03 18:44:09;;;;;;;4.30;2.40;;;;;;;;;;4982112;28;20198;-92
2023/09/03 18:47:14;;;;;;;3.20;2.03;;;;;;;;;;4961966;28;20210;-91
2023/09/03 18:50:19;;;;;;;4.43;2.95;;;;;;;;;;4970871;28;20673;-94
2023/09/03 18:53:25;;;;;;;6.38;3.28;;;;;;;;;;4971544;28;20257;-93
2023/09/03 18:56:32;;;;;;;8.40;2.38;;;;;;;;;;4971236;28;20226;-93
2023/09/03 18:59:38;;;;;;;3.15;1.90;;;;;;;;;;4965331;28;20214;-91
2023/09/03 19:02:44;;;;;;;3.63;1.73;;;;;;;;;;4969800;28;20202;-92
2023/09/03 19:05:49;;;;;;;4.35;2.03;;;;;;;;;;4969789;28;20198;-90
2023/09/03 19:08:54;;;;;;;3.10;1.70;;;;;;;;;;4969470;28;20198;-91
2023/09/03 19:12:01;;;;;;;4.40;1.90;;;;;;;;;;4970500;28;20178;-92